Gail Cecilia — WDI7262 — position and weather

sailwx.info

Track history (hours):
 
Tides and Currents Weather Stations Pressure Air Temp Water Temp Dewpoint Dewpoint Depression Visibility Wind Speed Wind Dir Waves Ship Positions

Gail Cecilia

Owner: LeBeouf Bros. Towing, LLC, Houma, LA. More information available from US FCC via Universal Licensing System and Coast Guard Vessel Documentation Center.

Last reported at 2018-Feb-19 12:00 UTC. Time now 2018-Feb-19 12:01 UTC.
Position N 29°35' W 090°36'.

Length 24 m; draft 3 m.

Type: Tug. MMSI: 367726950.

Date/timePositionNaut miles runAvg speedWind from/ knotsBaromVisibWave heightAir tempDewpointWater temp
2018-Feb-19 12:00N 29°35' W 090°36'0 0.0
2018-Feb-19 11:30N 29°35' W 090°36'0 0.0
2018-Feb-19 11:00N 29°35' W 090°36'0 0.0
2018-Feb-19 10:30N 29°35' W 090°36'0 0.0
2018-Feb-19 09:30N 29°35' W 090°36'0 0.0
2018-Feb-19 09:00N 29°35' W 090°36'0 0.0
2018-Feb-19 08:30N 29°35' W 090°36'0 0.0
2018-Feb-19 08:00N 29°35' W 090°36'0 0.0
2018-Feb-19 07:30N 29°35' W 090°36'0 0.0
2018-Feb-19 07:00N 29°35' W 090°36'0 0.0
2018-Feb-19 06:30N 29°35' W 090°36'0 0.0
2018-Feb-19 06:00N 29°35' W 090°36'0 0.0
2018-Feb-19 05:30N 29°35' W 090°36'0 0.0
2018-Feb-19 05:00N 29°35' W 090°36'0 0.0
2018-Feb-19 04:30N 29°35' W 090°36'0 0.0
2018-Feb-19 04:00N 29°35' W 090°36'0 0.0
2018-Feb-19 03:30N 29°35' W 090°36'0 0.0
2018-Feb-19 03:00N 29°35' W 090°36'0 0.0
2018-Feb-19 02:30N 29°35' W 090°36'0 0.0
2018-Feb-19 02:00N 29°35' W 090°36'0 0.0
2018-Feb-19 01:30N 29°35' W 090°36'0 0.0
2018-Feb-19 01:00N 29°35' W 090°36'0 0.0
2018-Feb-19 00:30N 29°35' W 090°36'0 0.0
2018-Feb-19 00:00N 29°35' W 090°36'0 0.0
2018-Feb-18 23:30N 29°35' W 090°36'0 0.0
2018-Feb-18 23:00N 29°35' W 090°36'0 0.0
2018-Feb-18 22:30N 29°35' W 090°36'0 0.0
2018-Feb-18 22:00N 29°35' W 090°36'0 0.0
2018-Feb-18 21:25N 29°35' W 090°36'1 1.7
2018-Feb-18 20:59N 29°34' W 090°36'0 0.0
2018-Feb-18 20:30N 29°34' W 090°36'0 0.0
2018-Feb-18 20:00N 29°34' W 090°36'0 0.0
2018-Feb-18 19:30N 29°34' W 090°36'0 0.0
2018-Feb-18 19:00N 29°34' W 090°36'0 0.0
2018-Feb-18 18:30N 29°34' W 090°36'0 0.8
2018-Feb-18 18:00N 29°35' W 090°35'1 0.9
2018-Feb-18 17:27N 29°35' W 090°36'0 0.9
2018-Feb-18 16:59N 29°35' W 090°36'3 5.5
2018-Feb-18 16:30N 29°34' W 090°33'2 0.1
2018-Feb-17 19:56N 29°34' W 090°30'2 4.9
2018-Feb-17 19:27N 29°34' W 090°33'2 4.8
2018-Feb-17 19:01N 29°35' W 090°35'2 4.3
2018-Feb-17 18:30N 29°35' W 090°38'2 4.7
2018-Feb-17 17:59N 29°36' W 090°40'2 4.0
2018-Feb-17 17:30N 29°36' W 090°43'2 4.0
2018-Feb-17 17:00N 29°35' W 090°43'2 3.5
2018-Feb-17 16:30N 29°34' W 090°45'3 4.8
2018-Feb-17 15:58N 29°32' W 090°47'3 5.7
2018-Feb-17 15:30N 29°32' W 090°50'7 5.4
2018-Feb-17 14:07N 29°35' W 090°58'54 2.3
2018-Feb-16 14:24N 29°50' W 091°57'0 0.0
2018-Feb-16 13:06N 29°50' W 091°57'0 0.1
2018-Feb-16 12:55N 29°50' W 091°57'2 4.3
2018-Feb-16 12:24N 29°50' W 091°60'2 5.0
2018-Feb-16 11:55N 29°49' W 092°02'2 4.9
2018-Feb-16 11:30N 29°48' W 092°05'3 5.1
2018-Feb-16 11:00N 29°47' W 092°07'2 4.5
2018-Feb-16 10:30N 29°47' W 092°10'2 4.1
2018-Feb-16 10:00N 29°47' W 092°12'2 3.7
2018-Feb-16 09:30N 29°48' W 092°14'1 1.5
2018-Feb-16 09:00N 29°48' W 092°15'0 0.0
2018-Feb-16 08:30N 29°48' W 092°15'0 0.0
2018-Feb-16 08:00N 29°48' W 092°15'0 0.0
2018-Feb-16 07:30N 29°48' W 092°15'0 0.0
2018-Feb-16 07:00N 29°48' W 092°15'0 0.0
2018-Feb-16 06:29N 29°48' W 092°15'0 0.0
2018-Feb-16 05:59N 29°48' W 092°15'0 0.0
2018-Feb-16 05:30N 29°48' W 092°15'0 0.0
2018-Feb-16 05:00N 29°48' W 092°15'0 0.0
2018-Feb-16 04:28N 29°48' W 092°15'0 0.0
2018-Feb-16 04:00N 29°48' W 092°15'0 0.2
2018-Feb-16 03:30N 29°48' W 092°15'0 0.9
2018-Feb-16 03:00N 29°48' W 092°15'2 3.9
2018-Feb-16 02:30N 29°49' W 092°17'1 1.6
2018-Feb-16 01:59N 29°50' W 092°18'43 4.2
2018-Feb-15 15:39N 29°56' W 093°07'1 4.3
2018-Feb-15 15:25N 29°56' W 093°08'2 4.0
2018-Feb-15 15:00N 29°57' W 093°10'1 1.0
2018-Feb-15 14:26N 29°57' W 093°10'0 0.0
2018-Feb-15 14:00N 29°57' W 093°10'0 0.0
2018-Feb-15 13:31N 29°57' W 093°10'0 0.0
2018-Feb-15 13:00N 29°57' W 093°10'0 0.0
2018-Feb-15 12:30N 29°57' W 093°10'0 0.0
2018-Feb-15 12:00N 29°57' W 093°10'0 0.0
2018-Feb-15 11:30N 29°57' W 093°10'0 0.0
2018-Feb-15 11:00N 29°57' W 093°10'0 0.0
2018-Feb-15 10:30N 29°57' W 093°10'0 0.0
2018-Feb-15 10:00N 29°57' W 093°10'0 0.0
2018-Feb-15 09:30N 29°57' W 093°10'0 0.0
2018-Feb-15 09:00N 29°57' W 093°10'0 0.0
2018-Feb-15 08:30N 29°57' W 093°10'0 0.0
2018-Feb-15 08:00N 29°57' W 093°10'0 0.0
2018-Feb-15 07:30N 29°57' W 093°10'0 0.0
2018-Feb-15 07:00N 29°57' W 093°10'0 0.0
2018-Feb-15 06:30N 29°57' W 093°10'0 0.0
2018-Feb-15 06:00N 29°57' W 093°10'0 0.0
2018-Feb-15 05:31N 29°57' W 093°10'0 0.0
2018-Feb-15 05:00N 29°57' W 093°10'0 0.0
2018-Feb-15 04:30N 29°57' W 093°10'0 0.0
2018-Feb-15 03:59N 29°57' W 093°10'0 0.0
2018-Feb-15 03:28N 29°57' W 093°10'0 0.0
2018-Feb-15 03:01N 29°57' W 093°10'0 0.0
2018-Feb-15 02:22N 29°57' W 093°10'0 0.0
2018-Feb-15 02:00N 29°57' W 093°10'0 0.0
2018-Feb-15 01:30N 29°57' W 093°10'0 0.0
2018-Feb-15 01:00N 29°57' W 093°10'0 0.9
2018-Feb-15 00:30N 29°58' W 093°11'2 4.6
2018-Feb-15 00:00N 29°59' W 093°13'2 4.2
2018-Feb-14 23:30N 30°01' W 093°14'1 1.6
2018-Feb-14 23:00N 30°02' W 093°14'0 0.7
2018-Feb-14 22:30N 30°02' W 093°15'2 3.5
2018-Feb-14 22:00N 30°03' W 093°16'2 3.3
2018-Feb-14 21:30N 30°05' W 093°17'2 3.1
2018-Feb-14 21:00N 30°06' W 093°18'0 0.9
2018-Feb-14 20:30N 30°06' W 093°18'1 2.7
2018-Feb-14 20:00N 30°06' W 093°20'2 3.4
2018-Feb-14 19:30N 30°08' W 093°19'0 0.3
2018-Feb-14 19:00N 30°08' W 093°19'0 0.0
2018-Feb-14 18:28N 30°08' W 093°19'0 0.0
2018-Feb-14 18:00N 30°08' W 093°19'0 0.0
2018-Feb-14 17:30N 30°08' W 093°19'0 0.0
2018-Feb-14 17:00N 30°08' W 093°19'0 0.0
2018-Feb-14 16:31N 30°08' W 093°19'0 0.0
2018-Feb-14 16:01N 30°08' W 093°19'0 0.0
2018-Feb-14 15:30N 30°08' W 093°19'0 0.1
2018-Feb-14 15:00N 30°08' W 093°19'0 0.1
2018-Feb-14 14:31N 30°08' W 093°19'0 0.0
2018-Feb-14 14:00N 30°08' W 093°19'0 0.0
2018-Feb-14 13:27N 30°08' W 093°19'0 0.0
2018-Feb-14 13:00N 30°08' W 093°19'0 0.0
2018-Feb-14 12:30N 30°08' W 093°19'0 0.0
2018-Feb-14 11:59N 30°08' W 093°19'0 0.0
2018-Feb-14 11:30N 30°08' W 093°19'0 0.0
2018-Feb-14 11:00N 30°08' W 093°19'0 0.0
2018-Feb-14 10:30N 30°08' W 093°19'0 0.0
2018-Feb-14 10:00N 30°08' W 093°19'0 0.0
2018-Feb-14 09:30N 30°08' W 093°19'0 0.0
2018-Feb-14 09:00N 30°08' W 093°19'0 0.0
2018-Feb-14 08:30N 30°08' W 093°19'0 0.0
2018-Feb-14 07:59N 30°08' W 093°19'0 0.0
2018-Feb-14 07:28N 30°08' W 093°19'0 0.0
2018-Feb-14 07:00N 30°08' W 093°19'0 0.0
2018-Feb-14 06:29N 30°08' W 093°19'0 0.0
2018-Feb-14 06:00N 30°08' W 093°19'0 0.0
2018-Feb-14 05:30N 30°08' W 093°19'0 0.0
2018-Feb-14 05:00N 30°08' W 093°19'0 0.0
2018-Feb-14 04:30N 30°08' W 093°19'0 0.0
2018-Feb-14 03:59N 30°08' W 093°19'0 0.0
2018-Feb-14 03:30N 30°08' W 093°19'0 0.0
2018-Feb-14 03:00N 30°08' W 093°19'0 0.0
2018-Feb-14 02:30N 30°08' W 093°19'0 0.0
2018-Feb-14 02:00N 30°08' W 093°19'0 0.0
2018-Feb-14 01:30N 30°08' W 093°19'0 0.0
2018-Feb-14 01:00N 30°08' W 093°19'0 0.0
2018-Feb-14 00:30N 30°08' W 093°19'0 0.0
2018-Feb-14 00:00N 30°08' W 093°19'0 0.0
2018-Feb-13 23:30N 30°08' W 093°19'0 0.0
2018-Feb-13 23:01N 30°08' W 093°19'0 0.0
2018-Feb-13 22:30N 30°08' W 093°19'0 0.0
2018-Feb-13 22:00N 30°08' W 093°19'0 0.0
2018-Feb-13 21:30N 30°08' W 093°19'0 0.0
2018-Feb-13 21:00N 30°08' W 093°19'0 0.0
2018-Feb-13 20:30N 30°08' W 093°19'0 0.0
2018-Feb-13 19:59N 30°08' W 093°19'0 0.0
2018-Feb-13 19:30N 30°08' W 093°19'0 0.2
2018-Feb-13 19:00N 30°08' W 093°19'0 0.0
2018-Feb-13 18:30N 30°08' W 093°19'0 0.0
2018-Feb-13 18:00N 30°08' W 093°19'0 0.1
2018-Feb-13 17:30N 30°08' W 093°19'0 0.0
2018-Feb-13 17:00N 30°08' W 093°19'0 0.0
2018-Feb-13 16:30N 30°08' W 093°19'0 0.1
2018-Feb-13 15:58N 30°08' W 093°19'0 0.0
2018-Feb-13 15:30N 30°08' W 093°19'0 0.0
2018-Feb-13 15:00N 30°08' W 093°19'0 0.0
2018-Feb-13 14:30N 30°08' W 093°19'0 0.0
2018-Feb-13 14:00N 30°08' W 093°19'0 0.0
2018-Feb-13 13:30N 30°08' W 093°19'0 0.1
2018-Feb-13 13:00N 30°08' W 093°19'0 0.0
2018-Feb-13 12:30N 30°08' W 093°19'0 0.0
2018-Feb-13 12:00N 30°08' W 093°19'0 0.0
2018-Feb-13 11:26N 30°08' W 093°19'0 0.0
2018-Feb-13 11:00N 30°08' W 093°19'0 0.0
2018-Feb-13 10:30N 30°08' W 093°19'0 0.0
2018-Feb-13 10:00N 30°08' W 093°19'0 0.0
2018-Feb-13 09:30N 30°08' W 093°19'0 0.0
2018-Feb-13 08:58N 30°08' W 093°19'0 0.0
2018-Feb-13 08:30N 30°08' W 093°19'0 0.0
2018-Feb-13 07:59N 30°08' W 093°19'0 0.0
2018-Feb-13 07:28N 30°08' W 093°19'0 0.0
2018-Feb-13 07:00N 30°08' W 093°19'0 0.0
2018-Feb-13 06:30N 30°08' W 093°19'0 0.0
2018-Feb-13 06:00N 30°08' W 093°19'0 0.0
2018-Feb-13 05:29N 30°08' W 093°19'0 0.0
2018-Feb-13 05:00N 30°08' W 093°19'0 0.0
2018-Feb-13 04:30N 30°08' W 093°19'0 0.0
2018-Feb-13 04:00N 30°08' W 093°19'0 0.0
2018-Feb-13 03:30N 30°08' W 093°19'0 0.0
2018-Feb-13 03:00N 30°08' W 093°19'0 0.0
2018-Feb-13 02:30N 30°08' W 093°19'0 0.0
2018-Feb-13 02:00N 30°08' W 093°19'0 0.0
2018-Feb-13 01:30N 30°08' W 093°19'0 0.0
2018-Feb-13 01:01N 30°08' W 093°19'0 0.0
2018-Feb-13 00:30N 30°08' W 093°19'0 0.0
2018-Feb-13 00:00N 30°08' W 093°19'0 0.0
2018-Feb-12 23:30N 30°08' W 093°19'0 0.0
2018-Feb-12 23:00N 30°08' W 093°19'0 0.1
2018-Feb-12 22:30N 30°08' W 093°19'2 4.9
2018-Feb-12 22:00N 30°06' W 093°20'1 1.6
2018-Feb-12 21:28N 30°06' W 093°19'1 2.0
2018-Feb-12 20:55N 30°05' W 093°18'1 3.2
2018-Feb-12 20:30N 30°05' W 093°17'1 2.3
2018-Feb-12 20:00N 30°04' W 093°16'0 0.1
2018-Feb-12 19:25N 30°04' W 093°16'0 0.3
2018-Feb-12 19:00N 30°03' W 093°16'2 4.3
2018-Feb-12 18:30N 30°02' W 093°14'3 5.3
2018-Feb-12 17:59N 29°59' W 093°13'3 6.5
2018-Feb-12 17:29N 29°57' W 093°10'2 5.3
2018-Feb-12 17:00N 29°56' W 093°08'0 0.3
2018-Feb-12 16:29N 29°56' W 093°08'0 0.0
2018-Feb-12 16:00N 29°56' W 093°08'0 0.1
2018-Feb-12 15:17N 29°56' W 093°08'0 0.3
2018-Feb-12 14:58N 29°56' W 093°08'0 0.0
2018-Feb-12 14:29N 29°56' W 093°08'0 0.0
2018-Feb-12 14:00N 29°56' W 093°08'0 0.0
2018-Feb-12 13:30N 29°56' W 093°08'0 0.0
2018-Feb-12 13:00N 29°56' W 093°08'0 0.0
2018-Feb-12 12:30N 29°56' W 093°08'0 0.3
2018-Feb-12 11:56N 29°56' W 093°08'0 0.0
2018-Feb-12 11:27N 29°56' W 093°08'0 0.0
2018-Feb-12 10:59N 29°56' W 093°08'0 0.0
2018-Feb-12 10:30N 29°56' W 093°08'0 0.0
2018-Feb-12 09:50N 29°56' W 093°08'0 0.0
2018-Feb-12 09:25N 29°56' W 093°08'0 0.0
2018-Feb-12 09:00N 29°56' W 093°08'0 0.0
2018-Feb-12 08:29N 29°56' W 093°08'0 0.0
2018-Feb-12 08:00N 29°56' W 093°08'0 0.0
2018-Feb-12 07:30N 29°56' W 093°08'0 0.0
2018-Feb-12 06:59N 29°56' W 093°08'0 0.0
2018-Feb-12 06:30N 29°56' W 093°08'0 0.0
2018-Feb-12 05:55N 29°56' W 093°08'0 0.7
2018-Feb-12 05:30N 29°56' W 093°08'0 0.0
2018-Feb-12 05:00N 29°56' W 093°08'42 5.7
2018-Feb-11 21:30N 29°51' W 092°20'2 4.0
2018-Feb-11 20:55N 29°49' W 092°17'2 5.2
2018-Feb-11 20:30N 29°48' W 092°15'3 5.5
2018-Feb-11 20:00N 29°47' W 092°12'2 3.1
2018-Feb-11 19:30N 29°47' W 092°11'0 0.1
2018-Feb-11 19:00N 29°47' W 092°11'1 1.6
2018-Feb-11 18:30N 29°47' W 092°10'3 5.5
2018-Feb-11 18:00N 29°48' W 092°07'3 5.6
2018-Feb-11 17:30N 29°49' W 092°04'67 2.9
2018-Feb-10 18:02N 29°32' W 090°49'0 6.4
2018-Feb-10 18:00N 29°32' W 090°49'3 5.7
2018-Feb-10 17:31N 29°33' W 090°46'2 4.8
2018-Feb-10 17:01N 29°34' W 090°43'2 3.1
2018-Feb-10 16:31N 29°36' W 090°43'2 4.0
2018-Feb-10 16:01N 29°36' W 090°40'3 6.4
2018-Feb-10 15:30N 29°35' W 090°37'3 6.1
2018-Feb-10 15:00N 29°34' W 090°34'  
Track history (hours):
 
Tides and Currents Weather Stations Pressure Air Temp Water Temp Dewpoint Dewpoint Depression Visibility Wind Speed Wind Dir Waves Ship Positions

Gail Cecilia

Owner: LeBeouf Bros. Towing, LLC, Houma, LA. More information available from US FCC via Universal Licensing System and Coast Guard Vessel Documentation Center.

Last reported at 2018-Feb-19 12:00 UTC. Time now 2018-Feb-19 12:01 UTC.
Position N 29°35' W 090°36'.

Length 24 m; draft 3 m.

Type: Tug. MMSI: 367726950.

Date/timePositionNaut miles runAvg speedWind from/ knotsBaromVisibWave heightAir tempDewpointWater temp
2018-Feb-19 12:00N 29°35' W 090°36'0 0.0
2018-Feb-19 11:30N 29°35' W 090°36'0 0.0
2018-Feb-19 11:00N 29°35' W 090°36'0 0.0
2018-Feb-19 10:30N 29°35' W 090°36'0 0.0
2018-Feb-19 09:30N 29°35' W 090°36'0 0.0
2018-Feb-19 09:00N 29°35' W 090°36'0 0.0
2018-Feb-19 08:30N 29°35' W 090°36'0 0.0
2018-Feb-19 08:00N 29°35' W 090°36'0 0.0
2018-Feb-19 07:30N 29°35' W 090°36'0 0.0
2018-Feb-19 07:00N 29°35' W 090°36'0 0.0
2018-Feb-19 06:30N 29°35' W 090°36'0 0.0
2018-Feb-19 06:00N 29°35' W 090°36'0 0.0
2018-Feb-19 05:30N 29°35' W 090°36'0 0.0
2018-Feb-19 05:00N 29°35' W 090°36'0 0.0
2018-Feb-19 04:30N 29°35' W 090°36'0 0.0
2018-Feb-19 04:00N 29°35' W 090°36'0 0.0
2018-Feb-19 03:30N 29°35' W 090°36'0 0.0
2018-Feb-19 03:00N 29°35' W 090°36'0 0.0
2018-Feb-19 02:30N 29°35' W 090°36'0 0.0
2018-Feb-19 02:00N 29°35' W 090°36'0 0.0
2018-Feb-19 01:30N 29°35' W 090°36'0 0.0
2018-Feb-19 01:00N 29°35' W 090°36'0 0.0
2018-Feb-19 00:30N 29°35' W 090°36'0 0.0
2018-Feb-19 00:00N 29°35' W 090°36'0 0.0
2018-Feb-18 23:30N 29°35' W 090°36'0 0.0
2018-Feb-18 23:00N 29°35' W 090°36'0 0.0
2018-Feb-18 22:30N 29°35' W 090°36'0 0.0
2018-Feb-18 22:00N 29°35' W 090°36'0 0.0
2018-Feb-18 21:25N 29°35' W 090°36'1 1.7
2018-Feb-18 20:59N 29°34' W 090°36'0 0.0
2018-Feb-18 20:30N 29°34' W 090°36'0 0.0
2018-Feb-18 20:00N 29°34' W 090°36'0 0.0
2018-Feb-18 19:30N 29°34' W 090°36'0 0.0
2018-Feb-18 19:00N 29°34' W 090°36'0 0.0
2018-Feb-18 18:30N 29°34' W 090°36'0 0.8
2018-Feb-18 18:00N 29°35' W 090°35'1 0.9
2018-Feb-18 17:27N 29°35' W 090°36'0 0.9
2018-Feb-18 16:59N 29°35' W 090°36'3 5.5
2018-Feb-18 16:30N 29°34' W 090°33'2 0.1
2018-Feb-17 19:56N 29°34' W 090°30'2 4.9
2018-Feb-17 19:27N 29°34' W 090°33'2 4.8
2018-Feb-17 19:01N 29°35' W 090°35'2 4.3
2018-Feb-17 18:30N 29°35' W 090°38'2 4.7
2018-Feb-17 17:59N 29°36' W 090°40'2 4.0
2018-Feb-17 17:30N 29°36' W 090°43'2 4.0
2018-Feb-17 17:00N 29°35' W 090°43'2 3.5
2018-Feb-17 16:30N 29°34' W 090°45'3 4.8
2018-Feb-17 15:58N 29°32' W 090°47'3 5.7
2018-Feb-17 15:30N 29°32' W 090°50'7 5.4
2018-Feb-17 14:07N 29°35' W 090°58'54 2.3
2018-Feb-16 14:24N 29°50' W 091°57'0 0.0
2018-Feb-16 13:06N 29°50' W 091°57'0 0.1
2018-Feb-16 12:55N 29°50' W 091°57'2 4.3
2018-Feb-16 12:24N 29°50' W 091°60'2 5.0
2018-Feb-16 11:55N 29°49' W 092°02'2 4.9
2018-Feb-16 11:30N 29°48' W 092°05'3 5.1
2018-Feb-16 11:00N 29°47' W 092°07'2 4.5
2018-Feb-16 10:30N 29°47' W 092°10'2 4.1
2018-Feb-16 10:00N 29°47' W 092°12'2 3.7
2018-Feb-16 09:30N 29°48' W 092°14'1 1.5
2018-Feb-16 09:00N 29°48' W 092°15'0 0.0
2018-Feb-16 08:30N 29°48' W 092°15'0 0.0
2018-Feb-16 08:00N 29°48' W 092°15'0 0.0
2018-Feb-16 07:30N 29°48' W 092°15'0 0.0
2018-Feb-16 07:00N 29°48' W 092°15'0 0.0
2018-Feb-16 06:29N 29°48' W 092°15'0 0.0
2018-Feb-16 05:59N 29°48' W 092°15'0 0.0
2018-Feb-16 05:30N 29°48' W 092°15'0 0.0
2018-Feb-16 05:00N 29°48' W 092°15'0 0.0
2018-Feb-16 04:28N 29°48' W 092°15'0 0.0
2018-Feb-16 04:00N 29°48' W 092°15'0 0.2
2018-Feb-16 03:30N 29°48' W 092°15'0 0.9
2018-Feb-16 03:00N 29°48' W 092°15'2 3.9
2018-Feb-16 02:30N 29°49' W 092°17'1 1.6
2018-Feb-16 01:59N 29°50' W 092°18'43 4.2
2018-Feb-15 15:39N 29°56' W 093°07'1 4.3
2018-Feb-15 15:25N 29°56' W 093°08'2 4.0
2018-Feb-15 15:00N 29°57' W 093°10'1 1.0
2018-Feb-15 14:26N 29°57' W 093°10'0 0.0
2018-Feb-15 14:00N 29°57' W 093°10'0 0.0
2018-Feb-15 13:31N 29°57' W 093°10'0 0.0
2018-Feb-15 13:00N 29°57' W 093°10'0 0.0
2018-Feb-15 12:30N 29°57' W 093°10'0 0.0
2018-Feb-15 12:00N 29°57' W 093°10'0 0.0
2018-Feb-15 11:30N 29°57' W 093°10'0 0.0
2018-Feb-15 11:00N 29°57' W 093°10'0 0.0
2018-Feb-15 10:30N 29°57' W 093°10'0 0.0
2018-Feb-15 10:00N 29°57' W 093°10'0 0.0
2018-Feb-15 09:30N 29°57' W 093°10'0 0.0
2018-Feb-15 09:00N 29°57' W 093°10'0 0.0
2018-Feb-15 08:30N 29°57' W 093°10'0 0.0
2018-Feb-15 08:00N 29°57' W 093°10'0 0.0
2018-Feb-15 07:30N 29°57' W 093°10'0 0.0
2018-Feb-15 07:00N 29°57' W 093°10'0 0.0
2018-Feb-15 06:30N 29°57' W 093°10'0 0.0
2018-Feb-15 06:00N 29°57' W 093°10'0 0.0
2018-Feb-15 05:31N 29°57' W 093°10'0 0.0
2018-Feb-15 05:00N 29°57' W 093°10'0 0.0
2018-Feb-15 04:30N 29°57' W 093°10'0 0.0
2018-Feb-15 03:59N 29°57' W 093°10'0 0.0
2018-Feb-15 03:28N 29°57' W 093°10'0 0.0
2018-Feb-15 03:01N 29°57' W 093°10'0 0.0
2018-Feb-15 02:22N 29°57' W 093°10'0 0.0
2018-Feb-15 02:00N 29°57' W 093°10'0 0.0
2018-Feb-15 01:30N 29°57' W 093°10'0 0.0
2018-Feb-15 01:00N 29°57' W 093°10'0 0.9
2018-Feb-15 00:30N 29°58' W 093°11'2 4.6
2018-Feb-15 00:00N 29°59' W 093°13'2 4.2
2018-Feb-14 23:30N 30°01' W 093°14'1 1.6
2018-Feb-14 23:00N 30°02' W 093°14'0 0.7
2018-Feb-14 22:30N 30°02' W 093°15'2 3.5
2018-Feb-14 22:00N 30°03' W 093°16'2 3.3
2018-Feb-14 21:30N 30°05' W 093°17'2 3.1
2018-Feb-14 21:00N 30°06' W 093°18'0 0.9
2018-Feb-14 20:30N 30°06' W 093°18'1 2.7
2018-Feb-14 20:00N 30°06' W 093°20'2 3.4
2018-Feb-14 19:30N 30°08' W 093°19'0 0.3
2018-Feb-14 19:00N 30°08' W 093°19'0 0.0
2018-Feb-14 18:28N 30°08' W 093°19'0 0.0
2018-Feb-14 18:00N 30°08' W 093°19'0 0.0
2018-Feb-14 17:30N 30°08' W 093°19'0 0.0
2018-Feb-14 17:00N 30°08' W 093°19'0 0.0
2018-Feb-14 16:31N 30°08' W 093°19'0 0.0
2018-Feb-14 16:01N 30°08' W 093°19'0 0.0
2018-Feb-14 15:30N 30°08' W 093°19'0 0.1
2018-Feb-14 15:00N 30°08' W 093°19'0 0.1
2018-Feb-14 14:31N 30°08' W 093°19'0 0.0
2018-Feb-14 14:00N 30°08' W 093°19'0 0.0
2018-Feb-14 13:27N 30°08' W 093°19'0 0.0
2018-Feb-14 13:00N 30°08' W 093°19'0 0.0
2018-Feb-14 12:30N 30°08' W 093°19'0 0.0
2018-Feb-14 11:59N 30°08' W 093°19'0 0.0
2018-Feb-14 11:30N 30°08' W 093°19'0 0.0
2018-Feb-14 11:00N 30°08' W 093°19'0 0.0
2018-Feb-14 10:30N 30°08' W 093°19'0 0.0
2018-Feb-14 10:00N 30°08' W 093°19'0 0.0
2018-Feb-14 09:30N 30°08' W 093°19'0 0.0
2018-Feb-14 09:00N 30°08' W 093°19'0 0.0
2018-Feb-14 08:30N 30°08' W 093°19'0 0.0
2018-Feb-14 07:59N 30°08' W 093°19'0 0.0
2018-Feb-14 07:28N 30°08' W 093°19'0 0.0
2018-Feb-14 07:00N 30°08' W 093°19'0 0.0
2018-Feb-14 06:29N 30°08' W 093°19'0 0.0
2018-Feb-14 06:00N 30°08' W 093°19'0 0.0
2018-Feb-14 05:30N 30°08' W 093°19'0 0.0
2018-Feb-14 05:00N 30°08' W 093°19'0 0.0
2018-Feb-14 04:30N 30°08' W 093°19'0 0.0
2018-Feb-14 03:59N 30°08' W 093°19'0 0.0
2018-Feb-14 03:30N 30°08' W 093°19'0 0.0
2018-Feb-14 03:00N 30°08' W 093°19'0 0.0
2018-Feb-14 02:30N 30°08' W 093°19'0 0.0
2018-Feb-14 02:00N 30°08' W 093°19'0 0.0
2018-Feb-14 01:30N 30°08' W 093°19'0 0.0
2018-Feb-14 01:00N 30°08' W 093°19'0 0.0
2018-Feb-14 00:30N 30°08' W 093°19'0 0.0
2018-Feb-14 00:00N 30°08' W 093°19'0 0.0
2018-Feb-13 23:30N 30°08' W 093°19'0 0.0
2018-Feb-13 23:01N 30°08' W 093°19'0 0.0
2018-Feb-13 22:30N 30°08' W 093°19'0 0.0
2018-Feb-13 22:00N 30°08' W 093°19'0 0.0
2018-Feb-13 21:30N 30°08' W 093°19'0 0.0
2018-Feb-13 21:00N 30°08' W 093°19'0 0.0
2018-Feb-13 20:30N 30°08' W 093°19'0 0.0
2018-Feb-13 19:59N 30°08' W 093°19'0 0.0
2018-Feb-13 19:30N 30°08' W 093°19'0 0.2
2018-Feb-13 19:00N 30°08' W 093°19'0 0.0
2018-Feb-13 18:30N 30°08' W 093°19'0 0.0
2018-Feb-13 18:00N 30°08' W 093°19'0 0.1
2018-Feb-13 17:30N 30°08' W 093°19'0 0.0
2018-Feb-13 17:00N 30°08' W 093°19'0 0.0
2018-Feb-13 16:30N 30°08' W 093°19'0 0.1
2018-Feb-13 15:58N 30°08' W 093°19'0 0.0
2018-Feb-13 15:30N 30°08' W 093°19'0 0.0
2018-Feb-13 15:00N 30°08' W 093°19'0 0.0
2018-Feb-13 14:30N 30°08' W 093°19'0 0.0
2018-Feb-13 14:00N 30°08' W 093°19'0 0.0
2018-Feb-13 13:30N 30°08' W 093°19'0 0.1
2018-Feb-13 13:00N 30°08' W 093°19'0 0.0
2018-Feb-13 12:30N 30°08' W 093°19'0 0.0
2018-Feb-13 12:00N 30°08' W 093°19'0 0.0
2018-Feb-13 11:26N 30°08' W 093°19'0 0.0
2018-Feb-13 11:00N 30°08' W 093°19'0 0.0
2018-Feb-13 10:30N 30°08' W 093°19'0 0.0
2018-Feb-13 10:00N 30°08' W 093°19'0 0.0
2018-Feb-13 09:30N 30°08' W 093°19'0 0.0
2018-Feb-13 08:58N 30°08' W 093°19'0 0.0
2018-Feb-13 08:30N 30°08' W 093°19'0 0.0
2018-Feb-13 07:59N 30°08' W 093°19'0 0.0
2018-Feb-13 07:28N 30°08' W 093°19'0 0.0
2018-Feb-13 07:00N 30°08' W 093°19'0 0.0
2018-Feb-13 06:30N 30°08' W 093°19'0 0.0
2018-Feb-13 06:00N 30°08' W 093°19'0 0.0
2018-Feb-13 05:29N 30°08' W 093°19'0 0.0
2018-Feb-13 05:00N 30°08' W 093°19'0 0.0
2018-Feb-13 04:30N 30°08' W 093°19'0 0.0
2018-Feb-13 04:00N 30°08' W 093°19'0 0.0
2018-Feb-13 03:30N 30°08' W 093°19'0 0.0
2018-Feb-13 03:00N 30°08' W 093°19'0 0.0
2018-Feb-13 02:30N 30°08' W 093°19'0 0.0
2018-Feb-13 02:00N 30°08' W 093°19'0 0.0
2018-Feb-13 01:30N 30°08' W 093°19'0 0.0
2018-Feb-13 01:01N 30°08' W 093°19'0 0.0
2018-Feb-13 00:30N 30°08' W 093°19'0 0.0
2018-Feb-13 00:00N 30°08' W 093°19'0 0.0
2018-Feb-12 23:30N 30°08' W 093°19'0 0.0
2018-Feb-12 23:00N 30°08' W 093°19'0 0.1
2018-Feb-12 22:30N 30°08' W 093°19'2 4.9
2018-Feb-12 22:00N 30°06' W 093°20'1 1.6
2018-Feb-12 21:28N 30°06' W 093°19'1 2.0
2018-Feb-12 20:55N 30°05' W 093°18'1 3.2
2018-Feb-12 20:30N 30°05' W 093°17'1 2.3
2018-Feb-12 20:00N 30°04' W 093°16'0 0.1
2018-Feb-12 19:25N 30°04' W 093°16'0 0.3
2018-Feb-12 19:00N 30°03' W 093°16'2 4.3
2018-Feb-12 18:30N 30°02' W 093°14'3 5.3
2018-Feb-12 17:59N 29°59' W 093°13'3 6.5
2018-Feb-12 17:29N 29°57' W 093°10'2 5.3
2018-Feb-12 17:00N 29°56' W 093°08'0 0.3
2018-Feb-12 16:29N 29°56' W 093°08'0 0.0
2018-Feb-12 16:00N 29°56' W 093°08'0 0.1
2018-Feb-12 15:17N 29°56' W 093°08'0 0.3
2018-Feb-12 14:58N 29°56' W 093°08'0 0.0
2018-Feb-12 14:29N 29°56' W 093°08'0 0.0
2018-Feb-12 14:00N 29°56' W 093°08'0 0.0
2018-Feb-12 13:30N 29°56' W 093°08'0 0.0
2018-Feb-12 13:00N 29°56' W 093°08'0 0.0
2018-Feb-12 12:30N 29°56' W 093°08'0 0.3
2018-Feb-12 11:56N 29°56' W 093°08'0 0.0
2018-Feb-12 11:27N 29°56' W 093°08'0 0.0
2018-Feb-12 10:59N 29°56' W 093°08'0 0.0
2018-Feb-12 10:30N 29°56' W 093°08'0 0.0
2018-Feb-12 09:50N 29°56' W 093°08'0 0.0
2018-Feb-12 09:25N 29°56' W 093°08'0 0.0
2018-Feb-12 09:00N 29°56' W 093°08'0 0.0
2018-Feb-12 08:29N 29°56' W 093°08'0 0.0
2018-Feb-12 08:00N 29°56' W 093°08'0 0.0
2018-Feb-12 07:30N 29°56' W 093°08'0 0.0
2018-Feb-12 06:59N 29°56' W 093°08'0 0.0
2018-Feb-12 06:30N 29°56' W 093°08'0 0.0
2018-Feb-12 05:55N 29°56' W 093°08'0 0.7
2018-Feb-12 05:30N 29°56' W 093°08'0 0.0
2018-Feb-12 05:00N 29°56' W 093°08'42 5.7
2018-Feb-11 21:30N 29°51' W 092°20'2 4.0
2018-Feb-11 20:55N 29°49' W 092°17'2 5.2
2018-Feb-11 20:30N 29°48' W 092°15'3 5.5
2018-Feb-11 20:00N 29°47' W 092°12'2 3.1
2018-Feb-11 19:30N 29°47' W 092°11'0 0.1
2018-Feb-11 19:00N 29°47' W 092°11'1 1.6
2018-Feb-11 18:30N 29°47' W 092°10'3 5.5
2018-Feb-11 18:00N 29°48' W 092°07'3 5.6
2018-Feb-11 17:30N 29°49' W 092°04'67 2.9
2018-Feb-10 18:02N 29°32' W 090°49'0 6.4
2018-Feb-10 18:00N 29°32' W 090°49'3 5.7
2018-Feb-10 17:31N 29°33' W 090°46'2 4.8
2018-Feb-10 17:01N 29°34' W 090°43'2 3.1
2018-Feb-10 16:31N 29°36' W 090°43'2 4.0
2018-Feb-10 16:01N 29°36' W 090°40'3 6.4
2018-Feb-10 15:30N 29°35' W 090°37'3 6.1
2018-Feb-10 15:00N 29°34' W 090°34'  

Dump ship's entire track history